Time;durP1;ratioP1;P1;durP2;ratioP2;P2;SDS_P1;SDS_P2;PMS_P1;PMS_P2;Temp;Humidity;BMP_temperature;BMP_pressure;BME280_temperature;BME280_humidity;BME280_pressure;Samples;Min_cycle;Max_cycle;Signal;HPM_P1;HPM_P2
2023/08/27 00:01:11;;;;;;;2.10;1.87;;;;;;;;;;4975360;28;20414;-82
2023/08/27 00:03:39;;;;;;;2.90;2.57;;;;;;;;;;4975124;28;20174;-84
2023/08/27 00:06:06;;;;;;;4.37;3.00;;;;;;;;;;4974595;28;20465;-81
2023/08/27 00:08:32;;;;;;;2.40;1.83;;;;;;;;;;4975432;28;20416;-81
2023/08/27 00:10:58;;;;;;;2.00;1.70;;;;;;;;;;4975212;28;20448;-82
2023/08/27 00:13:24;;;;;;;4.20;2.00;;;;;;;;;;4975351;28;20411;-80
2023/08/27 00:15:50;;;;;;;4.00;2.60;;;;;;;;;;4975192;28;20471;-81
2023/08/27 00:18:16;;;;;;;2.70;1.83;;;;;;;;;;4974853;28;20422;-82
2023/08/27 00:20:42;;;;;;;3.90;2.23;;;;;;;;;;4975200;28;20487;-80
2023/08/27 00:23:08;;;;;;;3.97;2.27;;;;;;;;;;4975084;28;20200;-81
2023/08/27 00:25:34;;;;;;;4.23;2.77;;;;;;;;;;4957739;28;20716;-80
2023/08/27 00:28:03;;;;;;;2.13;1.93;;;;;;;;;;4975114;28;20425;-79
2023/08/27 00:30:29;;;;;;;2.70;2.17;;;;;;;;;;4974898;28;20417;-78
2023/08/27 00:32:55;;;;;;;5.37;2.37;;;;;;;;;;4973947;28;20497;-79
2023/08/27 00:35:21;;;;;;;6.63;2.60;;;;;;;;;;4974455;28;21023;-79
2023/08/27 00:37:47;;;;;;;2.87;2.63;;;;;;;;;;4969933;28;20185;-78
2023/08/27 00:40:13;;;;;;;4.20;2.63;;;;;;;;;;4973940;28;20673;-78
2023/08/27 00:42:39;;;;;;;2.93;2.20;;;;;;;;;;4973573;28;20613;-78
2023/08/27 00:45:06;;;;;;;4.87;2.10;;;;;;;;;;4974596;28;20499;-78
2023/08/27 00:47:33;;;;;;;3.63;2.60;;;;;;;;;;4974715;28;20544;-78
2023/08/27 00:49:59;;;;;;;2.47;2.20;;;;;;;;;;4974139;28;20426;-86
2023/08/27 00:52:25;;;;;;;2.37;2.10;;;;;;;;;;4974665;28;20519;-84
2023/08/27 00:54:52;;;;;;;4.73;2.13;;;;;;;;;;4974315;28;20420;-86
2023/08/27 00:57:19;;;;;;;3.30;2.73;;;;;;;;;;4974339;28;20477;-83
2023/08/27 00:59:46;;;;;;;3.60;2.60;;;;;;;;;;4974479;28;20784;-85
2023/08/27 01:02:11;;;;;;;2.40;1.93;;;;;;;;;;4974366;28;20427;-81
2023/08/27 01:04:37;;;;;;;2.87;2.37;;;;;;;;;;4973834;28;20463;-86
2023/08/27 01:07:08;;;;;;;3.80;2.60;;;;;;;;;;4974356;28;20424;-87
2023/08/27 01:09:37;;;;;;;2.90;2.60;;;;;;;;;;4974335;28;20447;-84
2023/08/27 01:12:21;;;;;;;3.40;3.00;;;;;;;;;;4974406;28;20428;-84
2023/08/27 01:14:48;;;;;;;5.97;3.70;;;;;;;;;;4974193;28;20454;-82
2023/08/27 01:17:16;;;;;;;3.43;3.13;;;;;;;;;;4972741;28;20475;-82
2023/08/27 01:19:43;;;;;;;5.47;3.00;;;;;;;;;;4973854;28;20435;-82
2023/08/27 01:22:09;;;;;;;3.27;2.60;;;;;;;;;;4974194;28;20430;-84
2023/08/27 01:24:34;;;;;;;6.80;4.27;;;;;;;;;;4974161;28;20404;-82
2023/08/27 01:27:05;;;;;;;4.23;3.83;;;;;;;;;;4974034;28;20184;-81
2023/08/27 01:29:39;;;;;;;3.60;2.80;;;;;;;;;;4973440;28;20420;-83
2023/08/27 01:32:15;;;;;;;5.73;3.13;;;;;;;;;;4954719;28;20459;-82
2023/08/27 01:34:42;;;;;;;3.40;2.70;;;;;;;;;;4954340;28;20420;-82
2023/08/27 01:37:10;;;;;;;4.77;3.00;;;;;;;;;;4937227;29;20481;-81
2023/08/27 01:39:36;;;;;;;3.33;2.60;;;;;;;;;;4937407;28;20417;-82
2023/08/27 01:42:02;;;;;;;4.47;3.60;;;;;;;;;;4954610;28;20417;-82
2023/08/27 01:44:28;;;;;;;4.30;3.20;;;;;;;;;;4954635;29;20763;-80
2023/08/27 01:46:54;;;;;;;4.30;2.40;;;;;;;;;;4954421;28;20413;-83
2023/08/27 01:49:20;;;;;;;4.40;2.40;;;;;;;;;;4954147;28;20421;-79
2023/08/27 01:51:45;;;;;;;3.30;2.60;;;;;;;;;;4937382;28;20444;-83
2023/08/27 01:54:11;;;;;;;3.70;2.67;;;;;;;;;;4963443;28;20566;-82
2023/08/27 01:56:37;;;;;;;3.43;2.50;;;;;;;;;;4973729;28;20517;-83
2023/08/27 01:59:04;;;;;;;4.40;2.87;;;;;;;;;;4973651;28;20412;-83
2023/08/27 02:01:32;;;;;;;2.40;2.20;;;;;;;;;;4973778;28;20412;-80
2023/08/27 02:03:59;;;;;;;4.40;2.97;;;;;;;;;;4973165;28;20415;-79
2023/08/27 02:06:25;;;;;;;3.30;3.00;;;;;;;;;;4973785;28;20926;-82
2023/08/27 02:08:50;;;;;;;4.87;3.57;;;;;;;;;;4973603;28;20416;-83
2023/08/27 02:11:16;;;;;;;3.50;3.30;;;;;;;;;;4972430;28;20420;-79
2023/08/27 02:13:42;;;;;;;3.03;2.70;;;;;;;;;;4972479;28;20207;-81
2023/08/27 02:16:08;;;;;;;3.07;2.57;;;;;;;;;;4973492;28;20279;-79
2023/08/27 02:18:34;;;;;;;3.77;2.03;;;;;;;;;;4972060;28;20769;-79
2023/08/27 02:21:01;;;;;;;2.77;1.80;;;;;;;;;;4973551;28;20900;-80
2023/08/27 02:23:27;;;;;;;3.63;2.80;;;;;;;;;;4973555;28;20173;-79
2023/08/27 02:25:53;;;;;;;3.70;2.70;;;;;;;;;;4973582;28;20415;-85
2023/08/27 02:28:19;;;;;;;4.60;2.53;;;;;;;;;;4973668;28;20511;-79
2023/08/27 02:30:54;;;;;;;3.30;2.33;;;;;;;;;;4975990;28;21011;-83
2023/08/27 02:33:19;;;;;;;4.30;2.97;;;;;;;;;;4976378;28;20404;-84
2023/08/27 02:35:45;;;;;;;3.83;3.47;;;;;;;;;;4977446;28;20477;-80
2023/08/27 02:38:11;;;;;;;3.80;3.40;;;;;;;;;;4977384;28;20210;-80
2023/08/27 02:40:38;;;;;;;6.30;3.20;;;;;;;;;;4977312;28;20897;-80
2023/08/27 02:43:07;;;;;;;3.77;3.13;;;;;;;;;;4975903;28;20922;-80
2023/08/27 02:45:32;;;;;;;5.60;3.97;;;;;;;;;;4977036;28;20414;-81
2023/08/27 02:47:58;;;;;;;4.43;2.77;;;;;;;;;;4975273;28;21870;-80
2023/08/27 02:50:24;;;;;;;3.00;2.70;;;;;;;;;;4977047;28;20172;-83
2023/08/27 02:52:50;;;;;;;5.87;3.60;;;;;;;;;;4977160;28;20627;-79
2023/08/27 02:55:16;;;;;;;6.03;3.53;;;;;;;;;;4976982;28;20172;-79
2023/08/27 02:57:42;;;;;;;6.13;3.03;;;;;;;;;;4977022;28;20184;-82
2023/08/27 03:00:08;;;;;;;5.53;2.50;;;;;;;;;;4977097;28;20536;-79
2023/08/27 03:02:34;;;;;;;5.47;3.60;;;;;;;;;;4976661;28;20997;-79
2023/08/27 03:05:02;;;;;;;4.30;2.63;;;;;;;;;;4976798;28;20590;-79
2023/08/27 03:07:27;;;;;;;4.27;3.73;;;;;;;;;;4976935;28;20927;-82
2023/08/27 03:09:53;;;;;;;3.60;2.93;;;;;;;;;;4973784;28;20507;-79
2023/08/27 03:12:19;;;;;;;4.30;3.40;;;;;;;;;;4964719;28;20183;-80
2023/08/27 03:14:45;;;;;;;5.93;3.20;;;;;;;;;;4975230;28;20184;-79
2023/08/27 03:17:11;;;;;;;2.37;2.13;;;;;;;;;;4969471;28;20220;-79
2023/08/27 03:19:37;;;;;;;3.63;3.13;;;;;;;;;;4965406;28;20177;-83
2023/08/27 03:22:03;;;;;;;4.30;2.90;;;;;;;;;;4967277;28;20529;-84
2023/08/27 03:24:32;;;;;;;3.87;3.30;;;;;;;;;;4966528;28;20183;-84
2023/08/27 03:26:58;;;;;;;6.63;2.83;;;;;;;;;;4965349;28;20412;-83
2023/08/27 03:29:25;;;;;;;6.80;3.40;;;;;;;;;;4966921;28;20923;-83
2023/08/27 03:31:51;;;;;;;5.23;3.63;;;;;;;;;;4965375;28;20463;-84
2023/08/27 03:34:17;;;;;;;8.50;3.80;;;;;;;;;;4964981;28;20426;-83
2023/08/27 03:36:42;;;;;;;5.23;3.40;;;;;;;;;;4965728;28;20478;-84
2023/08/27 03:39:08;;;;;;;6.23;3.37;;;;;;;;;;4965107;28;20424;-84
2023/08/27 03:41:34;;;;;;;3.87;3.03;;;;;;;;;;4964311;28;20501;-84
2023/08/27 03:44:00;;;;;;;4.83;3.53;;;;;;;;;;4967059;28;20770;-83
2023/08/27 03:46:26;;;;;;;3.77;3.37;;;;;;;;;;4965798;28;20424;-83
2023/08/27 03:48:52;;;;;;;3.57;2.60;;;;;;;;;;4963969;28;20180;-84
2023/08/27 03:51:18;;;;;;;5.23;3.70;;;;;;;;;;4967045;28;20540;-84
2023/08/27 03:53:44;;;;;;;5.63;3.60;;;;;;;;;;4965351;28;20960;-83
2023/08/27 03:56:10;;;;;;;5.13;3.70;;;;;;;;;;4965538;28;20478;-86
2023/08/27 03:58:36;;;;;;;5.03;2.80;;;;;;;;;;4967133;28;20417;-84
2023/08/27 04:01:02;;;;;;;4.23;3.83;;;;;;;;;;4964980;28;20776;-83
2023/08/27 04:03:28;;;;;;;4.97;3.40;;;;;;;;;;4965412;28;20421;-82
2023/08/27 04:05:54;;;;;;;5.80;3.20;;;;;;;;;;4966373;28;20487;-82
2023/08/27 04:08:21;;;;;;;5.10;2.97;;;;;;;;;;4958899;28;20416;-83
2023/08/27 04:10:49;;;;;;;4.03;3.37;;;;;;;;;;4956436;28;20913;-80
2023/08/27 04:13:16;;;;;;;5.20;3.83;;;;;;;;;;4956283;28;20944;-80
2023/08/27 04:15:42;;;;;;;6.97;3.10;;;;;;;;;;4956192;28;20463;-82
2023/08/27 04:18:08;;;;;;;3.90;3.43;;;;;;;;;;4954729;28;20519;-83
2023/08/27 04:20:33;;;;;;;3.97;3.43;;;;;;;;;;4956221;28;20178;-82
2023/08/27 04:22:59;;;;;;;4.90;3.07;;;;;;;;;;4963845;28;20580;-80
2023/08/27 04:25:25;;;;;;;5.50;3.23;;;;;;;;;;4975254;28;20179;-82
2023/08/27 04:27:51;;;;;;;4.33;3.90;;;;;;;;;;4975214;28;20438;-82
2023/08/27 04:30:17;;;;;;;6.87;3.73;;;;;;;;;;4975379;28;20173;-81
2023/08/27 04:32:43;;;;;;;5.57;3.40;;;;;;;;;;4975025;28;20187;-81
2023/08/27 04:35:09;;;;;;;6.80;4.30;;;;;;;;;;4957906;28;20431;-82
2023/08/27 04:37:35;;;;;;;5.80;3.90;;;;;;;;;;4975188;28;20532;-82
2023/08/27 04:40:03;;;;;;;4.30;3.90;;;;;;;;;;4975082;28;20439;-83
2023/08/27 04:42:29;;;;;;;4.10;3.53;;;;;;;;;;4975099;28;20404;-81
2023/08/27 04:44:55;;;;;;;3.70;2.97;;;;;;;;;;4974934;28;20803;-82
2023/08/27 04:47:21;;;;;;;5.17;4.20;;;;;;;;;;4974673;28;20176;-82
2023/08/27 04:49:46;;;;;;;5.40;4.77;;;;;;;;;;4974910;28;20541;-80
2023/08/27 04:52:14;;;;;;;4.30;3.60;;;;;;;;;;4974483;28;20414;-82
2023/08/27 04:54:40;;;;;;;8.40;5.10;;;;;;;;;;4974927;28;20198;-82
2023/08/27 04:57:06;;;;;;;4.87;4.40;;;;;;;;;;4974828;28;20475;-82
2023/08/27 04:59:32;;;;;;;4.70;3.90;;;;;;;;;;4974809;28;20403;-83
2023/08/27 05:02:01;;;;;;;3.67;3.20;;;;;;;;;;4974444;28;20460;-83
2023/08/27 05:04:28;;;;;;;4.70;4.13;;;;;;;;;;4974548;28;20216;-82
2023/08/27 05:06:54;;;;;;;6.20;4.63;;;;;;;;;;4974675;28;20450;-83
2023/08/27 05:09:20;;;;;;;6.53;4.50;;;;;;;;;;4974738;28;20779;-83
2023/08/27 05:11:46;;;;;;;3.10;2.83;;;;;;;;;;4974586;28;20424;-81
2023/08/27 05:14:12;;;;;;;5.03;4.50;;;;;;;;;;4973969;28;20418;-80
2023/08/27 05:16:38;;;;;;;6.93;4.77;;;;;;;;;;4974429;28;20700;-82
2023/08/27 05:19:04;;;;;;;4.27;3.70;;;;;;;;;;4974203;28;20174;-82
2023/08/27 05:21:30;;;;;;;7.10;4.23;;;;;;;;;;4974513;28;20584;-82
2023/08/27 05:23:55;;;;;;;6.50;5.20;;;;;;;;;;4974341;28;20970;-82
2023/08/27 05:26:21;;;;;;;6.07;5.30;;;;;;;;;;4974297;28;20431;-80
2023/08/27 05:28:47;;;;;;;5.77;5.30;;;;;;;;;;4974401;28;20479;-80
2023/08/27 05:31:13;;;;;;;7.00;5.50;;;;;;;;;;4974357;28;20258;-80
2023/08/27 05:33:39;;;;;;;5.03;4.53;;;;;;;;;;4973991;28;20447;-81
2023/08/27 05:36:05;;;;;;;7.30;4.97;;;;;;;;;;4974119;28;20482;-81
2023/08/27 05:38:31;;;;;;;3.90;3.60;;;;;;;;;;4956980;28;20188;-82
2023/08/27 05:40:58;;;;;;;5.47;4.97;;;;;;;;;;4974254;28;20169;-79
2023/08/27 05:43:25;;;;;;;6.50;5.37;;;;;;;;;;4974185;28;20456;-79
2023/08/27 05:45:51;;;;;;;7.13;5.60;;;;;;;;;;4974073;28;20991;-80
2023/08/27 05:48:17;;;;;;;5.30;4.70;;;;;;;;;;4973772;28;20448;-85
2023/08/27 05:50:44;;;;;;;5.70;5.17;;;;;;;;;;4974181;28;20176;-85
2023/08/27 05:53:11;;;;;;;5.57;5.07;;;;;;;;;;4974071;28;20425;-83
2023/08/27 05:55:37;;;;;;;6.27;5.20;;;;;;;;;;4974035;28;20816;-84
2023/08/27 05:58:06;;;;;;;6.13;5.73;;;;;;;;;;4956975;28;20420;-85
2023/08/27 06:00:32;;;;;;;6.70;5.03;;;;;;;;;;4973970;28;20170;-85
2023/08/27 06:02:58;;;;;;;8.60;5.20;;;;;;;;;;4973587;28;20447;-83
2023/08/27 06:05:25;;;;;;;7.87;5.63;;;;;;;;;;4976952;28;20965;-81
2023/08/27 06:07:51;;;;;;;5.63;5.13;;;;;;;;;;4977978;28;20211;-84
2023/08/27 06:10:17;;;;;;;7.97;5.67;;;;;;;;;;4978010;28;20440;-82
2023/08/27 06:12:42;;;;;;;5.40;4.90;;;;;;;;;;4977759;28;20423;-79
2023/08/27 06:15:08;;;;;;;5.80;5.23;;;;;;;;;;4977698;28;20419;-79
2023/08/27 06:17:34;;;;;;;8.37;5.53;;;;;;;;;;4977786;28;20589;-83
2023/08/27 06:20:00;;;;;;;6.67;5.57;;;;;;;;;;4977723;28;20407;-84
2023/08/27 06:22:26;;;;;;;5.50;5.00;;;;;;;;;;4977713;28;20435;-83
2023/08/27 06:24:52;;;;;;;5.57;5.07;;;;;;;;;;4977475;28;20177;-80
2023/08/27 06:27:18;;;;;;;4.77;4.27;;;;;;;;;;4977530;28;20181;-83
2023/08/27 06:29:47;;;;;;;5.90;5.10;;;;;;;;;;4977476;28;20463;-85
2023/08/27 06:32:16;;;;;;;4.80;3.63;;;;;;;;;;4959701;28;20275;-80
2023/08/27 06:34:41;;;;;;;4.77;4.37;;;;;;;;;;4960195;28;20516;-81
2023/08/27 06:37:07;;;;;;;8.90;4.57;;;;;;;;;;4977380;28;20611;-79
2023/08/27 06:39:33;;;;;;;4.80;4.40;;;;;;;;;;4977313;28;20174;-85
2023/08/27 06:42:02;;;;;;;4.90;4.40;;;;;;;;;;4977400;28;20413;-85
2023/08/27 06:44:28;;;;;;;5.23;4.73;;;;;;;;;;4977328;28;20661;-83
2023/08/27 06:46:54;;;;;;;5.07;4.23;;;;;;;;;;4959631;28;20432;-83
2023/08/27 06:49:20;;;;;;;5.73;4.67;;;;;;;;;;4977277;28;20413;-86
2023/08/27 06:51:46;;;;;;;5.07;4.23;;;;;;;;;;4977116;28;20178;-88
2023/08/27 06:54:18;;;;;;;4.33;4.03;;;;;;;;;;4966487;28;20182;-81
2023/08/27 06:56:44;;;;;;;8.70;4.20;;;;;;;;;;4966551;28;20620;-85
2023/08/27 06:59:10;;;;;;;4.10;3.23;;;;;;;;;;4969468;28;20453;-84
2023/08/27 07:01:39;;;;;;;4.10;3.53;;;;;;;;;;4964955;28;20516;-80
2023/08/27 07:04:05;;;;;;;3.67;3.37;;;;;;;;;;4971111;28;20480;-80
2023/08/27 07:06:31;;;;;;;4.17;3.77;;;;;;;;;;4964844;28;20450;-80
2023/08/27 07:08:57;;;;;;;3.90;3.47;;;;;;;;;;4966400;28;20502;-84
2023/08/27 07:11:23;;;;;;;4.17;3.70;;;;;;;;;;4971254;28;20529;-85
2023/08/27 07:13:49;;;;;;;3.73;3.07;;;;;;;;;;4971737;28;20204;-80
2023/08/27 07:16:16;;;;;;;5.50;2.83;;;;;;;;;;4963543;28;20212;-83
2023/08/27 07:18:42;;;;;;;3.30;3.00;;;;;;;;;;4976326;28;20462;-84
2023/08/27 07:21:07;;;;;;;2.43;1.80;;;;;;;;;;4976686;28;20438;-84
2023/08/27 07:23:33;;;;;;;2.90;2.60;;;;;;;;;;4975305;28;20268;-82
2023/08/27 07:25:59;;;;;;;2.90;2.50;;;;;;;;;;4973700;28;20461;-82
2023/08/27 07:28:25;;;;;;;3.50;2.20;;;;;;;;;;4955897;28;20208;-80
2023/08/27 07:30:54;;;;;;;2.30;1.77;;;;;;;;;;4972115;28;20616;-87
2023/08/27 07:33:20;;;;;;;3.63;1.87;;;;;;;;;;4975290;28;20416;-80
2023/08/27 07:35:46;;;;;;;4.17;1.97;;;;;;;;;;4975457;28;20470;-80
2023/08/27 07:38:12;;;;;;;4.27;2.30;;;;;;;;;;4975584;28;20775;-79
2023/08/27 07:40:38;;;;;;;3.37;1.87;;;;;;;;;;4975487;28;20419;-81
2023/08/27 07:43:04;;;;;;;1.90;1.60;;;;;;;;;;4975552;28;20176;-78
2023/08/27 07:45:30;;;;;;;2.63;2.17;;;;;;;;;;4975551;28;20412;-79
2023/08/27 07:47:56;;;;;;;3.80;2.43;;;;;;;;;;4974957;28;20415;-79
2023/08/27 07:50:22;;;;;;;3.20;1.70;;;;;;;;;;4975311;28;20426;-79
2023/08/27 07:52:48;;;;;;;1.97;1.83;;;;;;;;;;4975318;28;20901;-77
2023/08/27 07:55:15;;;;;;;2.63;1.80;;;;;;;;;;4975224;28;20182;-79
2023/08/27 07:57:41;;;;;;;2.93;1.87;;;;;;;;;;4975672;28;20546;-78
2023/08/27 08:00:07;;;;;;;2.60;2.03;;;;;;;;;;4974653;28;20403;-81
2023/08/27 08:02:33;;;;;;;4.40;2.20;;;;;;;;;;4956060;28;20546;-80
2023/08/27 08:05:01;;;;;;;2.10;2.00;;;;;;;;;;4960940;28;20502;-79
2023/08/27 08:07:27;;;;;;;3.03;1.63;;;;;;;;;;4968405;28;20441;-83
2023/08/27 08:09:53;;;;;;;4.43;2.43;;;;;;;;;;4966509;28;20520;-80
2023/08/27 08:12:20;;;;;;;2.27;1.80;;;;;;;;;;4972851;28;20211;-80
2023/08/27 08:14:46;;;;;;;4.10;2.43;;;;;;;;;;4975523;28;20415;-79
2023/08/27 08:17:12;;;;;;;2.67;1.67;;;;;;;;;;4975137;28;20482;-82
2023/08/27 08:19:38;;;;;;;5.03;1.93;;;;;;;;;;4975492;28;20223;-79
2023/08/27 08:22:05;;;;;;;2.30;1.70;;;;;;;;;;4974882;28;20184;-81
2023/08/27 08:24:31;;;;;;;4.40;1.80;;;;;;;;;;4975435;28;20463;-80
2023/08/27 08:26:57;;;;;;;3.10;2.10;;;;;;;;;;4974846;28;20432;-80
2023/08/27 08:29:23;;;;;;;2.10;1.90;;;;;;;;;;4975291;28;20909;-81
2023/08/27 08:31:49;;;;;;;2.60;1.73;;;;;;;;;;4974851;28;20184;-81
2023/08/27 08:34:15;;;;;;;4.10;2.83;;;;;;;;;;4975359;28;20183;-80
2023/08/27 08:36:41;;;;;;;2.67;2.47;;;;;;;;;;4975204;28;20226;-81
2023/08/27 08:39:07;;;;;;;3.90;3.10;;;;;;;;;;4975164;28;20411;-80
2023/08/27 08:41:35;;;;;;;3.80;2.50;;;;;;;;;;4975180;28;20419;-80
2023/08/27 08:44:06;;;;;;;2.87;2.57;;;;;;;;;;4975017;28;20415;-82
2023/08/27 08:46:34;;;;;;;2.40;2.03;;;;;;;;;;4974737;28;20411;-80
2023/08/27 08:49:03;;;;;;;2.73;1.90;;;;;;;;;;4974497;28;20432;-77
2023/08/27 08:51:30;;;;;;;2.73;2.47;;;;;;;;;;4974846;28;20528;-81
2023/08/27 08:53:59;;;;;;;3.20;2.23;;;;;;;;;;4974714;28;20780;-80
2023/08/27 08:56:28;;;;;;;2.63;2.03;;;;;;;;;;4957383;28;20916;-80
2023/08/27 08:58:56;;;;;;;2.80;1.60;;;;;;;;;;4974808;28;20415;-80
2023/08/27 09:01:22;;;;;;;2.67;2.00;;;;;;;;;;4973277;28;20419;-78
2023/08/27 09:03:52;;;;;;;2.13;1.73;;;;;;;;;;4971781;28;20482;-78
2023/08/27 09:06:21;;;;;;;3.10;1.80;;;;;;;;;;4954978;28;20421;-78
2023/08/27 09:08:47;;;;;;;2.33;1.53;;;;;;;;;;4948617;28;20458;-83
2023/08/27 09:11:16;;;;;;;3.73;2.27;;;;;;;;;;4974004;28;20432;-80
2023/08/27 09:13:42;;;;;;;3.13;1.57;;;;;;;;;;4974109;28;20440;-78
2023/08/27 09:16:09;;;;;;;2.80;1.50;;;;;;;;;;4972873;28;20476;-77
2023/08/27 09:18:35;;;;;;;2.40;1.90;;;;;;;;;;4973864;28;20840;-79
2023/08/27 09:21:01;;;;;;;2.90;1.63;;;;;;;;;;4973984;28;20522;-78
2023/08/27 09:23:29;;;;;;;2.83;1.60;;;;;;;;;;4974130;28;20432;-78
2023/08/27 09:25:56;;;;;;;3.23;1.50;;;;;;;;;;4973998;28;20423;-81
2023/08/27 09:28:22;;;;;;;1.80;1.70;;;;;;;;;;4974082;28;20467;-77
2023/08/27 09:30:48;;;;;;;3.30;2.17;;;;;;;;;;4973869;28;20844;-83
2023/08/27 09:33:14;;;;;;;4.10;1.70;;;;;;;;;;4973639;28;20905;-81
2023/08/27 09:35:41;;;;;;;3.30;1.87;;;;;;;;;;4973910;28;20463;-81
2023/08/27 09:38:07;;;;;;;2.97;1.30;;;;;;;;;;4973904;28;20180;-80
2023/08/27 09:40:34;;;;;;;1.20;1.10;;;;;;;;;;4973926;28;20407;-80
2023/08/27 09:43:04;;;;;;;1.80;1.40;;;;;;;;;;4973918;28;20415;-80
2023/08/27 09:45:30;;;;;;;5.10;1.67;;;;;;;;;;4973824;28;20459;-80
2023/08/27 09:47:58;;;;;;;4.03;1.47;;;;;;;;;;4973240;28;20424;-80
2023/08/27 09:50:24;;;;;;;3.47;1.37;;;;;;;;;;4969324;28;20417;-81
2023/08/27 09:52:54;;;;;;;4.20;1.50;;;;;;;;;;4954462;28;20530;-81
2023/08/27 09:55:20;;;;;;;3.23;1.60;;;;;;;;;;4953082;29;20432;-81
2023/08/27 09:57:54;;;;;;;2.03;1.13;;;;;;;;;;4954352;28;20429;-81
2023/08/27 10:00:21;;;;;;;3.20;1.70;;;;;;;;;;4954522;28;20405;-82
2023/08/27 10:02:50;;;;;;;1.50;1.30;;;;;;;;;;4964509;28;20420;-80
2023/08/27 10:05:16;;;;;;;2.33;1.30;;;;;;;;;;4962778;28;20496;-81
2023/08/27 10:07:42;;;;;;;2.77;0.67;;;;;;;;;;4963025;28;20463;-81
2023/08/27 10:10:08;;;;;;;2.30;1.10;;;;;;;;;;4964582;28;20177;-79
2023/08/27 10:12:34;;;;;;;2.30;1.50;;;;;;;;;;4961859;28;20219;-80
2023/08/27 10:15:00;;;;;;;2.23;1.57;;;;;;;;;;4963579;28;20448;-81
2023/08/27 10:17:26;;;;;;;1.80;1.03;;;;;;;;;;4962353;28;20486;-80
2023/08/27 10:19:53;;;;;;;1.63;1.30;;;;;;;;;;4964142;28;20426;-80
2023/08/27 10:22:19;;;;;;;2.03;1.10;;;;;;;;;;4963276;28;20436;-81
2023/08/27 10:24:46;;;;;;;2.17;1.60;;;;;;;;;;4962730;28;20416;-81
2023/08/27 10:27:12;;;;;;;3.23;1.20;;;;;;;;;;4965656;28;20803;-80
2023/08/27 10:29:40;;;;;;;1.50;1.10;;;;;;;;;;4963653;28;20412;-80
2023/08/27 10:32:07;;;;;;;3.23;1.13;;;;;;;;;;4963633;28;20830;-80
2023/08/27 10:34:33;;;;;;;2.70;1.30;;;;;;;;;;4962343;28;20444;-81
2023/08/27 10:37:04;;;;;;;4.17;1.20;;;;;;;;;;4963434;28;20526;-82
2023/08/27 10:39:32;;;;;;;2.10;1.60;;;;;;;;;;4964219;28;20824;-83
2023/08/27 10:41:58;;;;;;;2.03;0.90;;;;;;;;;;4960313;28;20421;-81
2023/08/27 10:44:24;;;;;;;3.70;1.23;;;;;;;;;;4962876;28;20415;-79
2023/08/27 10:47:09;;;;;;;1.60;0.80;;;;;;;;;;4963686;28;20808;-80
2023/08/27 10:49:42;;;;;;;1.80;1.10;;;;;;;;;;4961464;28;20184;-83
2023/08/27 10:52:14;;;;;;;4.03;1.17;;;;;;;;;;4967750;28;20507;-81
2023/08/27 10:54:40;;;;;;;1.83;0.90;;;;;;;;;;4966512;28;20412;-80
2023/08/27 10:57:16;;;;;;;2.70;1.30;;;;;;;;;;4965859;28;20547;-81
2023/08/27 10:59:42;;;;;;;3.00;1.30;;;;;;;;;;4968278;28;20499;-82
2023/08/27 11:02:08;;;;;;;1.60;1.00;;;;;;;;;;4965101;28;20432;-80
2023/08/27 11:04:42;;;;;;;2.70;1.27;;;;;;;;;;4970905;28;20455;-80
2023/08/27 11:07:28;;;;;;;2.30;1.03;;;;;;;;;;4976669;28;20416;-81
2023/08/27 11:09:55;;;;;;;2.20;1.20;;;;;;;;;;4976548;28;20458;-81
2023/08/27 11:12:24;;;;;;;3.50;1.00;;;;;;;;;;4975593;28;20550;-80
2023/08/27 11:14:50;;;;;;;2.90;0.63;;;;;;;;;;4976617;28;20412;-80
2023/08/27 11:17:26;;;;;;;3.17;0.70;;;;;;;;;;4961833;28;20472;-81
2023/08/27 11:19:57;;;;;;;2.13;1.03;;;;;;;;;;4968476;28;20430;-80
2023/08/27 11:22:23;;;;;;;1.57;0.93;;;;;;;;;;4976461;28;20451;-80
2023/08/27 11:24:52;;;;;;;1.53;0.90;;;;;;;;;;4959158;28;20933;-81
2023/08/27 11:27:22;;;;;;;1.90;1.00;;;;;;;;;;4976479;28;20419;-79
2023/08/27 11:29:52;;;;;;;1.83;0.93;;;;;;;;;;4957856;28;20780;-80
2023/08/27 11:32:20;;;;;;;1.10;0.67;;;;;;;;;;4975697;28;20412;-80
2023/08/27 11:34:50;;;;;;;1.83;0.87;;;;;;;;;;4976112;28;20470;-80
2023/08/27 11:37:37;;;;;;;2.60;0.50;;;;;;;;;;4975928;28;20475;-79
2023/08/27 11:40:02;;;;;;;1.87;1.23;;;;;;;;;;4975804;28;20443;-80
2023/08/27 11:42:28;;;;;;;2.30;1.40;;;;;;;;;;4975957;28;20418;-79
2023/08/27 11:44:54;;;;;;;2.57;1.20;;;;;;;;;;4974790;28;20414;-79
2023/08/27 11:47:21;;;;;;;2.50;1.03;;;;;;;;;;4975630;28;20230;-80
2023/08/27 11:49:47;;;;;;;3.80;1.80;;;;;;;;;;4975802;28;20822;-80
2023/08/27 11:52:14;;;;;;;3.60;1.50;;;;;;;;;;4975744;28;20421;-80
2023/08/27 11:54:41;;;;;;;4.90;1.70;;;;;;;;;;4975562;28;20414;-79
2023/08/27 11:57:08;;;;;;;3.00;2.00;;;;;;;;;;4975644;28;20485;-80
2023/08/27 11:59:34;;;;;;;3.87;1.63;;;;;;;;;;4975695;28;20411;-80
2023/08/27 12:02:00;;;;;;;1.50;1.30;;;;;;;;;;4973742;28;20422;-80
2023/08/27 12:04:29;;;;;;;2.70;1.07;;;;;;;;;;4972051;28;20461;-79
2023/08/27 12:06:57;;;;;;;2.73;1.33;;;;;;;;;;4971513;28;20473;-81
2023/08/27 12:09:24;;;;;;;2.20;1.37;;;;;;;;;;4970627;28;20414;-79
2023/08/27 12:11:53;;;;;;;2.10;1.10;;;;;;;;;;4964049;28;20513;-80
2023/08/27 12:14:26;;;;;;;1.90;0.80;;;;;;;;;;4963009;28;20919;-80
2023/08/27 12:16:52;;;;;;;3.73;1.13;;;;;;;;;;4962777;28;20812;-78
2023/08/27 12:19:19;;;;;;;1.90;0.90;;;;;;;;;;4967021;28;20429;-80
2023/08/27 12:21:50;;;;;;;3.83;1.10;;;;;;;;;;4964337;28;20429;-80
2023/08/27 12:24:26;;;;;;;3.03;0.80;;;;;;;;;;4963429;28;20418;-79
2023/08/27 12:26:52;;;;;;;1.97;0.90;;;;;;;;;;4966117;28;20421;-80
2023/08/27 12:29:18;;;;;;;2.43;1.33;;;;;;;;;;4964139;28;20907;-79
2023/08/27 12:31:45;;;;;;;1.67;0.60;;;;;;;;;;4964802;28;20423;-79
2023/08/27 12:34:12;;;;;;;2.07;0.90;;;;;;;;;;4973615;28;20437;-80
2023/08/27 12:36:37;;;;;;;3.07;0.60;;;;;;;;;;4967010;28;20486;-79
2023/08/27 12:39:03;;;;;;;2.60;0.90;;;;;;;;;;4970896;28;20457;-80
2023/08/27 12:41:29;;;;;;;1.77;0.57;;;;;;;;;;4974935;28;20187;-79
2023/08/27 12:43:55;;;;;;;2.97;0.70;;;;;;;;;;4974704;28;20423;-79
2023/08/27 12:46:24;;;;;;;1.00;0.80;;;;;;;;;;4974266;28;20192;-78
2023/08/27 12:48:50;;;;;;;4.03;0.70;;;;;;;;;;4974685;28;20419;-79
2023/08/27 12:51:16;;;;;;;1.67;0.40;;;;;;;;;;4974715;28;20422;-79
2023/08/27 12:53:42;;;;;;;1.63;0.47;;;;;;;;;;4974689;28;20412;-79
2023/08/27 12:56:08;;;;;;;1.27;0.80;;;;;;;;;;4974607;28;20784;-79
2023/08/27 12:58:34;;;;;;;0.90;0.50;;;;;;;;;;4974536;28;20415;-79
2023/08/27 13:01:00;;;;;;;1.63;0.50;;;;;;;;;;4974105;28;20750;-80
2023/08/27 13:03:27;;;;;;;1.73;0.70;;;;;;;;;;4974530;28;20780;-80
2023/08/27 13:05:56;;;;;;;1.90;0.90;;;;;;;;;;4974264;28;20238;-79
2023/08/27 13:08:22;;;;;;;2.10;0.30;;;;;;;;;;4974433;28;20427;-79
2023/08/27 13:10:57;;;;;;;1.80;0.40;;;;;;;;;;4974389;28;20395;-79
2023/08/27 13:13:23;;;;;;;0.63;0.40;;;;;;;;;;4978442;28;20496;-79
2023/08/27 13:15:49;;;;;;;1.90;0.70;;;;;;;;;;4975191;28;20470;-79
2023/08/27 13:18:21;;;;;;;0.90;0.40;;;;;;;;;;4974381;28;20428;-78
2023/08/27 13:20:50;;;;;;;1.00;0.50;;;;;;;;;;4974262;28;20249;-79
2023/08/27 13:23:16;;;;;;;1.40;0.40;;;;;;;;;;4974154;28;20934;-79
2023/08/27 13:25:42;;;;;;;1.37;0.67;;;;;;;;;;4974056;28;20405;-79
2023/08/27 13:28:08;;;;;;;1.27;0.70;;;;;;;;;;4974182;28;20485;-79
2023/08/27 13:30:34;;;;;;;0.73;0.30;;;;;;;;;;4973736;28;20430;-79
2023/08/27 13:33:00;;;;;;;1.57;0.37;;;;;;;;;;4974092;28;20428;-78
2023/08/27 13:35:26;;;;;;;2.37;0.97;;;;;;;;;;4973689;28;20795;-80
2023/08/27 13:37:52;;;;;;;0.83;0.37;;;;;;;;;;4973935;28;20223;-79
2023/08/27 13:40:18;;;;;;;1.63;0.47;;;;;;;;;;4973639;28;20459;-78
2023/08/27 13:42:45;;;;;;;0.90;0.33;;;;;;;;;;4972773;28;20236;-78
2023/08/27 13:45:11;;;;;;;1.53;0.53;;;;;;;;;;4969075;28;20285;-80
2023/08/27 13:47:40;;;;;;;1.77;0.60;;;;;;;;;;4954178;29;20426;-80
2023/08/27 13:50:06;;;;;;;0.80;0.30;;;;;;;;;;4954432;28;20513;-80
2023/08/27 13:52:32;;;;;;;1.97;0.40;;;;;;;;;;4954540;28;20772;-78
2023/08/27 13:54:58;;;;;;;1.17;0.70;;;;;;;;;;4954578;28;20430;-79
2023/08/27 13:57:24;;;;;;;1.40;0.60;;;;;;;;;;4954436;28;20215;-79
2023/08/27 13:59:49;;;;;;;0.77;0.33;;;;;;;;;;4954417;28;20179;-79
2023/08/27 14:02:15;;;;;;;1.67;0.30;;;;;;;;;;4954069;28;20827;-79
2023/08/27 14:04:42;;;;;;;0.97;0.40;;;;;;;;;;4954228;29;20216;-81
2023/08/27 14:07:08;;;;;;;0.60;0.20;;;;;;;;;;4954399;28;20184;-79
2023/08/27 14:09:34;;;;;;;1.57;0.40;;;;;;;;;;4954329;28;20820;-80
2023/08/27 14:12:00;;;;;;;2.20;0.63;;;;;;;;;;4954168;28;20489;-80
2023/08/27 14:14:26;;;;;;;0.80;0.47;;;;;;;;;;4954269;28;20403;-80
2023/08/27 14:16:55;;;;;;;1.90;0.70;;;;;;;;;;4969315;28;20996;-80
2023/08/27 14:19:21;;;;;;;1.43;0.30;;;;;;;;;;4973513;28;20423;-79
2023/08/27 14:21:47;;;;;;;1.63;0.60;;;;;;;;;;4973268;28;20834;-79
2023/08/27 14:24:13;;;;;;;2.17;1.00;;;;;;;;;;4973372;28;20427;-79
2023/08/27 14:26:39;;;;;;;2.40;1.57;;;;;;;;;;4976882;28;20171;-79
2023/08/27 14:29:05;;;;;;;1.87;0.90;;;;;;;;;;4977114;28;20418;-80
2023/08/27 14:31:31;;;;;;;1.50;1.10;;;;;;;;;;4976780;28;20411;-80
2023/08/27 14:34:07;;;;;;;2.10;1.73;;;;;;;;;;4976207;28;20931;-79
2023/08/27 14:36:33;;;;;;;2.00;1.53;;;;;;;;;;4977115;28;20221;-78
2023/08/27 14:38:59;;;;;;;2.70;1.20;;;;;;;;;;4977027;28;20423;-79
2023/08/27 14:41:26;;;;;;;3.00;1.53;;;;;;;;;;4975631;28;20188;-78